Time;durP1;ratioP1;P1;durP2;ratioP2;P2;SDS_P1;SDS_P2;PMS_P1;PMS_P2;Temp;Humidity;BMP_temperature;BMP_pressure;BME280_temperature;BME280_humidity;BME280_pressure;Samples;Min_cycle;Max_cycle;Signal;HPM_P1;HPM_P2
2022/06/11 00:01:26;;;;;;;0.40;0.40;;;20.60;97.20;;;;;;5134809;27;20191;-70
2022/06/11 00:04:16;;;;;;;0.40;0.40;;;20.60;97.70;;;;;;5135202;27;20202;-70
2022/06/11 00:07:10;;;;;;;0.40;0.40;;;20.60;97.80;;;;;;5133063;27;20202;-70
2022/06/11 00:09:58;;;;;;;0.40;0.40;;;20.60;98.00;;;;;;5133326;27;20226;-71
2022/06/11 00:12:48;;;;;;;0.40;0.40;;;20.60;98.20;;;;;;5134550;27;20255;-71
2022/06/11 00:15:36;;;;;;;0.40;0.40;;;20.60;98.50;;;;;;5134881;27;20203;-70
2022/06/11 00:18:26;;;;;;;0.40;0.40;;;20.50;99.00;;;;;;5133978;27;20195;-72
2022/06/11 00:21:15;;;;;;;0.40;0.40;;;20.50;98.30;;;;;;5134410;27;20206;-69
2022/06/11 00:24:04;;;;;;;0.50;0.50;;;20.40;98.20;;;;;;5134041;27;20236;-70
2022/06/11 00:26:55;;;;;;;0.40;0.40;;;20.40;98.40;;;;;;5134593;27;20706;-70
2022/06/11 00:29:45;;;;;;;0.40;0.40;;;20.40;98.80;;;;;;5133028;27;20222;-70
2022/06/11 00:32:33;;;;;;;0.47;0.47;;;20.30;99.50;;;;;;5134602;27;20210;-72
2022/06/11 00:35:21;;;;;;;0.40;0.40;;;20.30;99.00;;;;;;5133737;27;20206;-70
2022/06/11 00:38:10;;;;;;;0.40;0.40;;;20.30;98.90;;;;;;5133649;27;20678;-71
2022/06/11 00:40:58;;;;;;;0.40;0.40;;;20.20;98.70;;;;;;5133971;27;20583;-70
2022/06/11 00:43:46;;;;;;;0.40;0.40;;;20.10;98.10;;;;;;5133691;27;20201;-70
2022/06/11 00:46:43;;;;;;;0.40;0.40;;;20.10;97.70;;;;;;5133131;27;20195;-71
2022/06/11 00:49:38;;;;;;;0.40;0.40;;;20.00;97.60;;;;;;5133656;27;20265;-69
2022/06/11 00:52:30;;;;;;;0.40;0.40;;;19.90;97.90;;;;;;5133151;27;20225;-69
2022/06/11 00:55:23;;;;;;;0.40;0.40;;;19.90;97.70;;;;;;5133890;27;20581;-70
2022/06/11 00:58:14;;;;;;;0.40;0.40;;;19.90;97.50;;;;;;5133463;27;20198;-69
2022/06/11 01:01:03;;;;;;;0.40;0.40;;;19.80;97.50;;;;;;5133428;27;20203;-71
2022/06/11 01:03:55;;;;;;;0.40;0.40;;;19.70;97.60;;;;;;5133554;27;20187;-69
2022/06/11 01:06:51;;;;;;;0.40;0.40;;;19.60;97.80;;;;;;5136378;27;20206;-73
2022/06/11 01:09:47;;;;;;;0.40;0.40;;;19.60;97.90;;;;;;5134330;27;20214;-71
2022/06/11 01:12:46;;;;;;;0.40;0.40;;;19.50;98.00;;;;;;5127619;27;20206;-69
2022/06/11 01:15:40;;;;;;;0.50;0.50;;;19.40;98.50;;;;;;5135060;27;20210;-70
2022/06/11 01:18:38;;;;;;;0.40;0.40;;;19.30;99.60;;;;;;5134896;27;20203;-70
2022/06/11 01:21:36;;;;;;;0.40;0.40;;;19.20;99.90;;;;;;5134998;27;20205;-69
2022/06/11 01:24:48;;;;;;;0.40;0.40;;;19.20;99.90;;;;;;5135080;27;20687;-71
2022/06/11 01:28:00;;;;;;;0.40;0.40;;;19.10;99.90;;;;;;5134046;27;20217;-72
2022/06/11 01:30:55;;;;;;;0.40;0.40;;;19.10;99.90;;;;;;5133150;27;20241;-71
2022/06/11 01:33:51;;;;;;;0.40;0.40;;;19.00;99.90;;;;;;5132360;27;20237;-70
2022/06/11 01:36:44;;;;;;;0.40;0.40;;;19.00;99.90;;;;;;5132557;27;20206;-72
2022/06/11 01:39:39;;;;;;;0.40;0.40;;;18.90;99.90;;;;;;5132954;27;20219;-71
2022/06/11 01:42:32;;;;;;;0.40;0.40;;;18.80;99.90;;;;;;5132326;27;20195;-72
2022/06/11 01:45:23;;;;;;;0.40;0.40;;;18.80;99.90;;;;;;5133061;27;20199;-73
2022/06/11 01:48:16;;;;;;;0.40;0.40;;;18.60;99.90;;;;;;5132887;27;20199;-72
2022/06/11 01:51:16;;;;;;;0.40;0.40;;;18.60;99.90;;;;;;5132043;27;20202;-73
2022/06/11 01:54:24;;;;;;;0.50;0.50;;;18.40;99.90;;;;;;5132354;27;20211;-71
2022/06/11 01:57:34;;;;;;;0.40;0.40;;;18.30;99.90;;;;;;5132298;27;20199;-70
2022/06/11 02:00:24;;;;;;;0.40;0.40;;;18.20;99.90;;;;;;5131679;27;20222;-70
2022/06/11 02:03:27;;;;;;;0.40;0.40;;;18.10;99.90;;;;;;5131983;27;20575;-72
2022/06/11 02:06:40;;;;;;;0.40;0.40;;;18.10;99.90;;;;;;5132126;27;20198;-72
2022/06/11 02:09:36;;;;;;;0.50;0.50;;;18.10;99.90;;;;;;5131533;27;20218;-71
2022/06/11 02:12:28;;;;;;;0.40;0.40;;;18.10;99.90;;;;;;5131874;27;20219;-72
2022/06/11 02:15:24;;;;;;;0.40;0.40;;;18.10;99.90;;;;;;5132252;27;20566;-71
2022/06/11 02:18:16;;;;;;;0.40;0.40;;;18.10;99.90;;;;;;5132305;27;20198;-72
2022/06/11 02:21:11;;;;;;;0.50;0.50;;;18.00;99.90;;;;;;5131211;27;20601;-70
2022/06/11 02:24:05;;;;;;;0.40;0.40;;;18.00;99.90;;;;;;5131551;27;20202;-71
2022/06/11 02:26:57;;;;;;;0.40;0.40;;;18.00;99.90;;;;;;5131999;27;20438;-71
2022/06/11 02:29:46;;;;;;;0.40;0.40;;;18.00;99.90;;;;;;5131357;27;20221;-72
2022/06/11 02:32:35;;;;;;;0.40;0.40;;;18.00;99.90;;;;;;5131697;27;20214;-69
2022/06/11 02:35:29;;;;;;;0.40;0.40;;;18.00;99.90;;;;;;5132140;27;20690;-72
2022/06/11 02:38:22;;;;;;;0.40;0.40;;;18.00;99.90;;;;;;5131452;27;20376;-70
2022/06/11 02:41:13;;;;;;;0.40;0.40;;;18.00;99.90;;;;;;5131267;27;20194;-71
2022/06/11 02:44:02;;;;;;;0.40;0.40;;;18.00;99.90;;;;;;5131834;27;20848;-72
2022/06/11 02:46:51;;;;;;;0.40;0.40;;;18.10;99.90;;;;;;5131052;27;20217;-72
2022/06/11 02:49:39;;;;;;;0.40;0.40;;;18.10;99.90;;;;;;5131171;27;20226;-68
2022/06/11 02:52:27;;;;;;;0.50;0.50;;;18.00;99.90;;;;;;5130759;27;20210;-72
2022/06/11 02:55:18;;;;;;;0.40;0.40;;;18.00;99.90;;;;;;5131806;27;20588;-71
2022/06/11 02:58:08;;;;;;;0.40;0.40;;;18.00;99.90;;;;;;5131960;27;20255;-73
2022/06/11 03:00:56;;;;;;;0.40;0.40;;;18.00;99.90;;;;;;5131145;28;20225;-70
2022/06/11 03:03:45;;;;;;;0.40;0.40;;;18.10;99.90;;;;;;5135009;28;20190;-71
2022/06/11 03:06:33;;;;;;;0.40;0.40;;;18.10;99.90;;;;;;5132913;28;20194;-72
2022/06/11 03:09:25;;;;;;;0.40;0.40;;;18.20;99.90;;;;;;5130742;28;20218;-71
2022/06/11 03:12:16;;;;;;;0.50;0.50;;;18.20;99.90;;;;;;5131575;28;20232;-71
2022/06/11 03:15:05;;;;;;;0.50;0.50;;;18.30;99.90;;;;;;5130997;28;20210;-70
2022/06/11 03:17:55;;;;;;;0.40;0.40;;;18.30;99.90;;;;;;5131257;28;20203;-71
2022/06/11 03:20:43;;;;;;;0.40;0.40;;;18.40;99.90;;;;;;5131504;27;20214;-71
2022/06/11 03:23:32;;;;;;;0.40;0.40;;;18.50;99.90;;;;;;5135683;27;20195;-70
2022/06/11 03:26:20;;;;;;;0.40;0.40;;;18.50;99.90;;;;;;5135224;27;20205;-70
2022/06/11 03:29:10;;;;;;;0.40;0.40;;;18.50;99.90;;;;;;5134921;27;20272;-70
2022/06/11 03:31:58;;;;;;;0.40;0.40;;;18.60;99.90;;;;;;5135878;27;20203;-70
2022/06/11 03:34:47;;;;;;;0.40;0.40;;;18.60;99.90;;;;;;5135252;27;20218;-71
2022/06/11 03:37:36;;;;;;;0.40;0.40;;;18.70;99.90;;;;;;5135292;27;20375;-71
2022/06/11 03:40:24;;;;;;;0.50;0.50;;;18.70;99.90;;;;;;5134900;27;20222;-71
2022/06/11 03:43:12;;;;;;;0.40;0.40;;;18.80;99.90;;;;;;5134626;27;20194;-71
2022/06/11 03:46:02;;;;;;;1.70;1.60;;;18.80;99.90;;;;;;5134772;27;20201;-70
2022/06/11 03:48:51;;;;;;;0.40;0.40;;;18.90;99.90;;;;;;5134213;27;20215;-70
2022/06/11 03:51:41;;;;;;;0.40;0.40;;;19.00;99.90;;;;;;5135194;27;20198;-71
2022/06/11 03:54:29;;;;;;;0.40;0.40;;;19.00;99.90;;;;;;5134622;27;20226;-71
2022/06/11 03:57:17;;;;;;;0.40;0.40;;;19.10;99.90;;;;;;5135506;27;20203;-70
2022/06/11 04:00:09;;;;;;;0.40;0.40;;;19.10;99.90;;;;;;5133841;27;20226;-71
2022/06/11 04:02:58;;;;;;;0.60;0.60;;;19.20;99.90;;;;;;5134626;27;20199;-70
2022/06/11 04:05:48;;;;;;;0.40;0.40;;;19.30;99.90;;;;;;5135202;27;20228;-72
2022/06/11 04:08:37;;;;;;;0.40;0.40;;;19.40;99.90;;;;;;5134883;27;20235;-71
2022/06/11 04:11:25;;;;;;;0.40;0.40;;;19.40;99.90;;;;;;5134114;27;20217;-71
2022/06/11 04:14:14;;;;;;;0.40;0.40;;;19.50;99.90;;;;;;5135096;27;20219;-71
2022/06/11 04:17:06;;;;;;;0.40;0.40;;;19.60;99.90;;;;;;5134295;27;20217;-71
2022/06/11 04:19:57;;;;;;;0.40;0.40;;;19.60;99.90;;;;;;5133572;27;20219;-73
2022/06/11 04:22:45;;;;;;;0.40;0.40;;;19.70;99.90;;;;;;5134367;27;20198;-71
2022/06/11 04:25:34;;;;;;;0.40;0.40;;;19.80;99.90;;;;;;5133881;27;20191;-70
2022/06/11 04:28:22;;;;;;;0.82;0.82;;;19.90;99.90;;;;;;5134450;27;20199;-71
2022/06/11 04:31:11;;;;;;;0.40;0.40;;;20.00;99.90;;;;;;5133914;27;20195;-71
2022/06/11 04:34:00;;;;;;;0.40;0.40;;;20.00;99.90;;;;;;5134287;27;20214;-70
2022/06/11 04:36:50;;;;;;;0.40;0.40;;;20.00;99.90;;;;;;5133671;27;20194;-71
2022/06/11 04:39:38;;;;;;;0.40;0.40;;;20.10;99.90;;;;;;5133271;27;20595;-70
2022/06/11 04:42:28;;;;;;;0.40;0.40;;;20.10;99.90;;;;;;5133558;27;20199;-69
2022/06/11 04:45:18;;;;;;;0.40;0.40;;;20.20;99.90;;;;;;5134502;27;20194;-71
2022/06/11 04:48:06;;;;;;;0.40;0.40;;;20.20;99.90;;;;;;5134307;27;20206;-69
2022/06/11 04:50:54;;;;;;;0.40;0.40;;;20.30;99.90;;;;;;5133112;27;20201;-69
2022/06/11 04:53:45;;;;;;;0.40;0.40;;;20.30;99.90;;;;;;5133140;27;20206;-69
2022/06/11 04:56:33;;;;;;;0.40;0.40;;;20.40;99.90;;;;;;5133434;27;20214;-70
2022/06/11 04:59:21;;;;;;;0.50;0.50;;;20.50;99.90;;;;;;5133516;27;20233;-70
2022/06/11 05:02:10;;;;;;;0.40;0.40;;;20.50;99.90;;;;;;5140108;27;20195;-70
2022/06/11 05:04:58;;;;;;;0.40;0.40;;;20.50;99.90;;;;;;5134327;27;20587;-70
2022/06/11 05:07:48;;;;;;;0.40;0.40;;;20.60;99.90;;;;;;5133039;27;20195;-70
2022/06/11 05:10:37;;;;;;;0.40;0.40;;;20.70;99.90;;;;;;5132806;27;20214;-69
2022/06/11 05:13:26;;;;;;;0.40;0.40;;;20.70;99.90;;;;;;5132945;27;20275;-71
2022/06/11 05:16:16;;;;;;;0.50;0.50;;;20.80;99.90;;;;;;5132853;27;20669;-71
2022/06/11 05:19:05;;;;;;;0.40;0.40;;;20.90;99.90;;;;;;5133222;27;20600;-72
2022/06/11 05:21:55;;;;;;;0.40;0.40;;;20.90;99.90;;;;;;5133138;27;20282;-70
2022/06/11 05:24:43;;;;;;;0.40;0.40;;;21.00;99.90;;;;;;5133147;27;20271;-70
2022/06/11 05:27:33;;;;;;;1.15;0.95;;;21.00;99.90;;;;;;5133367;27;20206;-68
2022/06/11 05:30:24;;;;;;;1.25;1.25;;;21.10;99.90;;;;;;5132627;27;20222;-70
2022/06/11 05:33:13;;;;;;;0.40;0.40;;;21.20;99.90;;;;;;5132736;27;20199;-69
2022/06/11 05:36:01;;;;;;;0.40;0.40;;;21.40;99.90;;;;;;5132575;27;20222;-71
2022/06/11 05:38:49;;;;;;;0.50;0.50;;;21.50;99.90;;;;;;5132187;27;20223;-71
2022/06/11 05:41:37;;;;;;;0.40;0.40;;;21.60;99.90;;;;;;5132169;27;20199;-70
2022/06/11 05:44:27;;;;;;;0.40;0.40;;;21.60;99.90;;;;;;5131995;27;20201;-69
2022/06/11 05:47:19;;;;;;;0.40;0.40;;;21.60;99.90;;;;;;5132409;27;20244;-69
2022/06/11 05:50:08;;;;;;;0.47;0.47;;;21.70;99.90;;;;;;5131874;27;20219;-71
2022/06/11 05:52:59;;;;;;;0.70;0.70;;;21.70;99.90;;;;;;5132125;27;20260;-71
2022/06/11 05:55:49;;;;;;;0.40;0.40;;;21.80;99.90;;;;;;5132136;27;20758;-70
2022/06/11 05:58:40;;;;;;;0.40;0.40;;;22.00;99.90;;;;;;5132043;27;20690;-70
2022/06/11 06:01:32;;;;;;;0.50;0.50;;;22.00;99.90;;;;;;5127321;27;20283;-70
2022/06/11 06:04:21;;;;;;;0.50;0.50;;;22.10;99.90;;;;;;5130583;27;20690;-70
2022/06/11 06:07:10;;;;;;;0.40;0.40;;;22.20;99.90;;;;;;5132050;27;20259;-70
2022/06/11 06:09:58;;;;;;;0.40;0.40;;;22.30;99.90;;;;;;5111400;28;20223;-69
2022/06/11 06:12:46;;;;;;;0.40;0.40;;;22.30;99.90;;;;;;5110719;28;20207;-70
2022/06/11 06:15:34;;;;;;;0.40;0.40;;;22.50;99.90;;;;;;5110809;28;20722;-70
2022/06/11 06:18:24;;;;;;;0.47;0.47;;;22.60;99.90;;;;;;5111518;28;20210;-70
2022/06/11 06:21:12;;;;;;;0.40;0.40;;;22.60;99.90;;;;;;5124765;27;20207;-70
2022/06/11 06:24:01;;;;;;;0.40;0.40;;;22.80;99.90;;;;;;5131704;27;20246;-70
2022/06/11 06:26:49;;;;;;;0.40;0.40;;;22.90;99.90;;;;;;5131124;27;20202;-70
2022/06/11 06:29:37;;;;;;;0.40;0.40;;;23.10;99.90;;;;;;5132036;27;20225;-70
2022/06/11 06:32:26;;;;;;;0.40;0.40;;;23.20;99.90;;;;;;5132199;27;20194;-69
2022/06/11 06:35:15;;;;;;;0.50;0.50;;;23.40;99.90;;;;;;5133138;27;20614;-69
2022/06/11 06:38:04;;;;;;;1.00;1.00;;;23.50;99.90;;;;;;5132976;27;20202;-69
2022/06/11 06:40:52;;;;;;;0.40;0.40;;;23.50;99.90;;;;;;5131810;27;20211;-70
2022/06/11 06:43:40;;;;;;;0.40;0.40;;;23.40;99.90;;;;;;5131859;27;20683;-68
2022/06/11 06:46:29;;;;;;;0.40;0.40;;;23.50;99.90;;;;;;5132025;27;20190;-69
2022/06/11 06:49:17;;;;;;;0.50;0.50;;;23.50;99.90;;;;;;5132090;27;20234;-69
2022/06/11 06:52:07;;;;;;;0.88;0.88;;;23.60;99.90;;;;;;5131757;27;20202;-69
2022/06/11 06:54:56;;;;;;;0.50;0.50;;;23.60;99.90;;;;;;5131761;27;20232;-70
2022/06/11 06:57:44;;;;;;;0.40;0.40;;;23.80;99.90;;;;;;5132695;27;20194;-70
2022/06/11 07:00:32;;;;;;;1.08;1.08;;;23.90;99.90;;;;;;5144188;27;20222;-69
2022/06/11 07:03:20;;;;;;;0.40;0.40;;;24.20;99.90;;;;;;5133004;28;20207;-69
2022/06/11 07:06:09;;;;;;;0.85;0.85;;;24.30;99.60;;;;;;5131042;28;20210;-69
2022/06/11 07:08:58;;;;;;;0.40;0.40;;;24.20;99.00;;;;;;5130639;28;20226;-70
2022/06/11 07:11:47;;;;;;;1.88;1.77;;;24.30;99.30;;;;;;5130455;28;20210;-70
2022/06/11 07:14:35;;;;;;;0.40;0.40;;;24.30;99.10;;;;;;5131668;28;20202;-69
2022/06/11 07:17:24;;;;;;;0.40;0.40;;;24.40;99.10;;;;;;5131933;28;20209;-69
2022/06/11 07:20:16;;;;;;;0.40;0.40;;;24.60;99.10;;;;;;5130151;28;20214;-69
2022/06/11 07:23:10;;;;;;;0.40;0.40;;;24.50;97.80;;;;;;5130784;28;20202;-70
2022/06/11 07:26:00;;;;;;;0.40;0.40;;;24.50;98.10;;;;;;5130552;28;20194;-71
2022/06/11 07:28:54;;;;;;;0.40;0.40;;;24.50;97.90;;;;;;5131203;28;20199;-70
2022/06/11 07:31:44;;;;;;;0.40;0.40;;;24.30;97.80;;;;;;5131617;28;20198;-70
2022/06/11 07:34:34;;;;;;;0.40;0.40;;;24.50;97.70;;;;;;5130729;28;20195;-69
2022/06/11 07:37:22;;;;;;;0.40;0.40;;;24.50;97.70;;;;;;5131979;28;20199;-70
2022/06/11 07:40:11;;;;;;;0.40;0.40;;;24.40;96.80;;;;;;5130578;28;20587;-70
2022/06/11 07:43:01;;;;;;;0.40;0.40;;;24.30;97.00;;;;;;5131323;28;20195;-69
2022/06/11 07:45:49;;;;;;;0.50;0.50;;;24.20;97.00;;;;;;5131601;28;20706;-70
2022/06/11 07:48:37;;;;;;;0.40;0.40;;;24.00;96.10;;;;;;5130946;28;20206;-70
2022/06/11 07:51:25;;;;;;;0.40;0.40;;;24.00;96.40;;;;;;5130954;28;20199;-70
2022/06/11 07:54:14;;;;;;;0.40;0.40;;;24.00;96.20;;;;;;5130404;28;20195;-69
2022/06/11 07:57:02;;;;;;;0.40;0.40;;;24.10;96.20;;;;;;5131176;28;20587;-68
2022/06/11 07:59:57;;;;;;;0.77;0.77;;;24.20;95.70;;;;;;5130573;28;20769;-69
2022/06/11 08:02:46;;;;;;;0.40;0.40;;;24.50;95.60;;;;;;5131101;28;20195;-69
2022/06/11 08:05:35;;;;;;;0.60;0.60;;;24.80;94.80;;;;;;5130707;28;20210;-69
2022/06/11 08:08:24;;;;;;;0.50;0.50;;;25.20;94.40;;;;;;5133710;27;20190;-69
2022/06/11 08:11:18;;;;;;;0.40;0.40;;;25.30;93.80;;;;;;5134307;27;20612;-68
2022/06/11 08:14:06;;;;;;;0.40;0.40;;;25.30;93.30;;;;;;5135529;27;20210;-69
2022/06/11 08:16:56;;;;;;;0.40;0.40;;;25.50;93.20;;;;;;5133901;27;20218;-70
2022/06/11 08:19:44;;;;;;;0.50;0.50;;;25.80;93.10;;;;;;5134693;27;20225;-69
2022/06/11 08:22:32;;;;;;;0.40;0.40;;;26.00;92.40;;;;;;5134228;27;20199;-69
2022/06/11 08:25:21;;;;;;;0.40;0.40;;;26.20;92.40;;;;;;5134686;27;20243;-69
2022/06/11 08:28:12;;;;;;;0.40;0.40;;;26.30;92.90;;;;;;5133858;27;20718;-69
2022/06/11 08:31:04;;;;;;;0.40;0.40;;;26.40;92.20;;;;;;5134375;27;20240;-70
2022/06/11 08:33:54;;;;;;;0.40;0.40;;;26.30;92.00;;;;;;5133830;27;20671;-70
2022/06/11 08:36:42;;;;;;;0.40;0.40;;;26.30;91.20;;;;;;5134521;27;20703;-71
2022/06/11 08:39:31;;;;;;;0.40;0.40;;;26.10;91.60;;;;;;5133421;27;20263;-70
2022/06/11 08:42:31;;;;;;;0.45;0.45;;;25.90;91.80;;;;;;5133801;27;20701;-70
2022/06/11 08:45:22;;;;;;;0.40;0.40;;;25.70;92.10;;;;;;5133445;27;20195;-69
2022/06/11 08:48:20;;;;;;;0.40;0.40;;;25.70;92.30;;;;;;5134334;27;20252;-69
2022/06/11 08:51:22;;;;;;;0.40;0.40;;;25.80;92.10;;;;;;5133133;27;20195;-69
2022/06/11 08:54:12;;;;;;;0.40;0.40;;;26.00;91.70;;;;;;5136645;27;20202;-69
2022/06/11 08:57:18;;;;;;;0.40;0.40;;;26.30;91.90;;;;;;5139155;27;20221;-69
2022/06/11 09:00:13;;;;;;;0.40;0.40;;;26.40;91.10;;;;;;5137853;27;20249;-70
2022/06/11 09:03:13;;;;;;;0.60;0.60;;;26.60;90.40;;;;;;5136310;27;20206;-69
2022/06/11 09:06:28;;;;;;;0.70;0.70;;;26.70;89.40;;;;;;5135913;27;20198;-69
2022/06/11 09:09:23;;;;;;;0.40;0.40;;;26.90;89.40;;;;;;5135091;27;20218;-67
2022/06/11 09:12:34;;;;;;;0.40;0.40;;;26.90;87.30;;;;;;5138014;27;20679;-67
2022/06/11 09:15:34;;;;;;;0.40;0.40;;;27.00;87.30;;;;;;5136376;27;20263;-67
2022/06/11 09:19:01;;;;;;;0.40;0.40;;;27.00;86.80;;;;;;5136160;27;20222;-70
2022/06/11 09:22:02;;;;;;;0.50;0.50;;;27.10;86.00;;;;;;5127554;27;20666;-67
2022/06/11 09:25:11;;;;;;;0.40;0.40;;;27.20;85.80;;;;;;5136600;27;20251;-67
2022/06/11 09:28:08;;;;;;;0.40;0.40;;;27.20;84.40;;;;;;5136662;27;20201;-67
2022/06/11 09:31:06;;;;;;;0.40;0.40;;;27.50;85.70;;;;;;5133897;27;20203;-68
2022/06/11 09:33:59;;;;;;;0.47;0.45;;;27.70;83.60;;;;;;5134098;27;20198;-67
2022/06/11 09:36:55;;;;;;;0.40;0.40;;;28.00;81.60;;;;;;5133054;27;20214;-68
2022/06/11 09:39:52;;;;;;;0.73;0.73;;;28.30;80.40;;;;;;5131626;27;20267;-67
2022/06/11 09:42:52;;;;;;;0.40;0.40;;;28.60;80.20;;;;;;5132205;27;20675;-68
2022/06/11 09:45:49;;;;;;;0.40;0.40;;;28.80;80.00;;;;;;5131635;27;20735;-67
2022/06/11 09:48:49;;;;;;;0.50;0.50;;;29.10;79.40;;;;;;5132023;27;20202;-68
2022/06/11 09:51:43;;;;;;;0.40;0.40;;;29.20;76.70;;;;;;5132008;27;20666;-67
2022/06/11 09:54:43;;;;;;;0.80;0.60;;;29.10;73.10;;;;;;5132314;27;20571;-67
2022/06/11 09:57:43;;;;;;;3.05;0.63;;;28.80;76.10;;;;;;5132025;27;20225;-70
2022/06/11 10:00:36;;;;;;;0.60;0.60;;;28.20;77.30;;;;;;5131654;27;20256;-68
2022/06/11 10:03:30;;;;;;;0.50;0.50;;;28.00;77.00;;;;;;5131296;27;20663;-69
2022/06/11 10:06:23;;;;;;;0.50;0.50;;;28.00;77.00;;;;;;5131275;27;20197;-68
2022/06/11 10:09:16;;;;;;;0.52;0.52;;;28.20;76.20;;;;;;5131942;27;20702;-68
2022/06/11 10:12:16;;;;;;;0.40;0.40;;;28.50;75.50;;;;;;5130343;27;20206;-68
2022/06/11 10:15:11;;;;;;;0.40;0.40;;;28.90;73.80;;;;;;5132864;27;20209;-68
2022/06/11 10:18:04;;;;;;;0.55;0.55;;;29.20;74.40;;;;;;5132070;27;20210;-68
2022/06/11 10:20:55;;;;;;;0.40;0.40;;;29.20;74.00;;;;;;5131161;27;20287;-68
2022/06/11 10:23:49;;;;;;;0.40;0.40;;;29.20;74.80;;;;;;5131289;27;20198;-68
2022/06/11 10:26:46;;;;;;;0.40;0.40;;;29.40;73.80;;;;;;5132515;27;20251;-69
2022/06/11 10:29:41;;;;;;;0.40;0.40;;;29.30;73.10;;;;;;5130907;27;20222;-68
2022/06/11 10:32:36;;;;;;;0.50;0.50;;;29.30;73.30;;;;;;5131587;27;20244;-69
2022/06/11 10:35:31;;;;;;;2.03;0.98;;;29.50;73.00;;;;;;5131409;27;20701;-68
2022/06/11 10:38:32;;;;;;;0.70;0.70;;;29.30;72.80;;;;;;5130575;27;20218;-68
2022/06/11 10:41:27;;;;;;;0.65;0.65;;;29.30;72.70;;;;;;5129792;27;20206;-68
2022/06/11 10:44:27;;;;;;;0.40;0.40;;;29.30;70.60;;;;;;5131816;27;20194;-68
2022/06/11 10:47:21;;;;;;;0.40;0.40;;;29.30;70.20;;;;;;5131333;27;20218;-68
2022/06/11 10:50:18;;;;;;;0.40;0.40;;;29.20;70.40;;;;;;5130422;27;20717;-68
2022/06/11 10:53:16;;;;;;;0.40;0.40;;;29.10;70.30;;;;;;5131925;27;20199;-68
2022/06/11 10:56:07;;;;;;;0.50;0.50;;;28.90;70.80;;;;;;5138759;27;20202;-67
2022/06/11 10:59:01;;;;;;;0.40;0.40;;;29.00;72.10;;;;;;5110107;28;20268;-68
2022/06/11 11:01:56;;;;;;;0.50;0.50;;;28.90;71.70;;;;;;5111846;28;20199;-69
2022/06/11 11:04:58;;;;;;;0.40;0.40;;;28.80;72.20;;;;;;5110902;28;20671;-69
2022/06/11 11:07:56;;;;;;;0.40;0.40;;;28.60;71.70;;;;;;5110709;28;20226;-68
2022/06/11 11:10:47;;;;;;;0.40;0.40;;;28.70;73.30;;;;;;5110913;28;20695;-70
2022/06/11 11:13:39;;;;;;;0.40;0.40;;;28.70;73.00;;;;;;5109898;28;20195;-69
2022/06/11 11:16:32;;;;;;;0.70;0.50;;;28.80;73.60;;;;;;5110970;28;20222;-68
2022/06/11 11:19:23;;;;;;;0.50;0.50;;;29.20;71.60;;;;;;5110735;28;20641;-68
2022/06/11 11:22:19;;;;;;;0.40;0.40;;;29.60;72.10;;;;;;5110405;28;20202;-69
2022/06/11 11:25:16;;;;;;;0.40;0.40;;;29.70;70.70;;;;;;5110387;28;20559;-68
2022/06/11 11:28:06;;;;;;;0.40;0.40;;;29.70;71.50;;;;;;5111475;28;20264;-68
2022/06/11 11:31:01;;;;;;;0.50;0.50;;;29.50;67.90;;;;;;5111028;28;20192;-67
2022/06/11 11:34:03;;;;;;;0.40;0.40;;;29.20;69.00;;;;;;5111980;28;20668;-68
2022/06/11 11:36:57;;;;;;;0.40;0.40;;;28.70;70.10;;;;;;5110228;28;20689;-67
2022/06/11 11:39:52;;;;;;;0.40;0.40;;;27.90;70.90;;;;;;5110667;28;20226;-68
2022/06/11 11:42:40;;;;;;;0.40;0.40;;;27.60;72.40;;;;;;5111801;28;20195;-70
2022/06/11 11:45:41;;;;;;;2.78;0.50;;;27.20;73.40;;;;;;5114376;28;20249;-69
2022/06/11 11:48:35;;;;;;;0.60;0.60;;;27.00;74.80;;;;;;5115501;28;20199;-70
2022/06/11 11:51:27;;;;;;;0.40;0.40;;;26.50;80.10;;;;;;5114873;28;20679;-70
2022/06/11 11:54:19;;;;;;;0.50;0.50;;;26.30;81.90;;;;;;5113520;28;20203;-70
2022/06/11 11:57:14;;;;;;;1.00;1.00;;;26.10;83.60;;;;;;5123745;27;20199;-70
2022/06/11 12:00:07;;;;;;;0.40;0.40;;;26.10;84.10;;;;;;5135613;27;20710;-70
2022/06/11 12:02:59;;;;;;;0.60;0.60;;;26.40;84.60;;;;;;5135284;27;20198;-70
2022/06/11 12:05:52;;;;;;;0.40;0.40;;;26.80;84.50;;;;;;5134166;27;20622;-69
2022/06/11 12:08:44;;;;;;;1.10;0.63;;;27.90;82.20;;;;;;5133513;27;20690;-72
2022/06/11 12:11:36;;;;;;;0.40;0.40;;;28.00;82.70;;;;;;5134007;27;20199;-68
2022/06/11 12:14:31;;;;;;;0.40;0.40;;;28.30;81.70;;;;;;5134032;27;20671;-68
2022/06/11 12:17:41;;;;;;;2.47;1.73;;;28.50;80.00;;;;;;5134369;27;20206;-67
2022/06/11 12:20:36;;;;;;;0.40;0.40;;;28.60;80.00;;;;;;5134200;27;20734;-69
2022/06/11 12:23:30;;;;;;;1.13;0.57;;;29.10;77.50;;;;;;5133386;27;20198;-68
2022/06/11 12:26:22;;;;;;;0.40;0.40;;;29.40;75.00;;;;;;5133585;27;20203;-68
2022/06/11 12:29:16;;;;;;;0.75;0.60;;;29.30;76.10;;;;;;5134681;27;20214;-68
2022/06/11 12:32:14;;;;;;;1.73;0.70;;;28.60;78.80;;;;;;5133754;27;20202;-70
2022/06/11 12:35:13;;;;;;;0.40;0.40;;;27.90;80.90;;;;;;5133968;27;20209;-69
2022/06/11 12:38:09;;;;;;;0.40;0.40;;;27.40;83.20;;;;;;5134181;27;20218;-69
2022/06/11 12:41:13;;;;;;;0.40;0.40;;;27.00;82.90;;;;;;5133590;27;20238;-70
2022/06/11 12:44:28;;;;;;;0.40;0.40;;;26.80;83.90;;;;;;5133215;27;20684;-70
2022/06/11 12:47:46;;;;;;;0.40;0.40;;;26.90;84.30;;;;;;5133078;27;20199;-69
2022/06/11 12:51:01;;;;;;;0.40;0.40;;;27.10;83.80;;;;;;5133612;27;20707;-69
2022/06/11 12:53:58;;;;;;;0.60;0.60;;;27.40;83.20;;;;;;5137013;27;20194;-68
2022/06/11 12:57:00;;;;;;;2.25;1.15;;;27.60;82.60;;;;;;5135778;27;20198;-69
2022/06/11 13:00:00;;;;;;;0.65;0.65;;;27.80;82.10;;;;;;5132778;27;20229;-70
2022/06/11 13:03:06;;;;;;;0.50;0.50;;;28.00;82.20;;;;;;5133429;27;20210;-69
2022/06/11 13:06:20;;;;;;;1.30;1.20;;;27.60;81.10;;;;;;5134002;27;20753;-70
2022/06/11 13:09:19;;;;;;;3.85;1.25;;;27.30;82.30;;;;;;5134200;27;20210;-70
2022/06/11 13:12:33;;;;;;;0.40;0.40;;;26.90;83.10;;;;;;5132165;27;20191;-69
2022/06/11 13:15:36;;;;;;;0.40;0.40;;;27.00;84.50;;;;;;5131465;27;20194;-70
2022/06/11 13:18:51;;;;;;;0.40;0.40;;;27.40;81.70;;;;;;5132562;27;20222;-68
2022/06/11 13:21:49;;;;;;;0.40;0.40;;;28.40;78.10;;;;;;5133615;27;20198;-68
2022/06/11 13:24:42;;;;;;;0.40;0.40;;;29.40;74.50;;;;;;5132779;27;20207;-68
2022/06/11 13:27:46;;;;;;;0.40;0.40;;;29.90;73.10;;;;;;5131586;27;20195;-68
2022/06/11 13:30:44;;;;;;;0.50;0.50;;;30.40;71.10;;;;;;5131977;27;20267;-68
2022/06/11 13:33:45;;;;;;;0.40;0.40;;;30.30;68.00;;;;;;5132877;27;20203;-68
2022/06/11 13:36:44;;;;;;;0.40;0.40;;;30.80;68.80;;;;;;5131653;27;20206;-68
2022/06/11 13:39:52;;;;;;;0.40;0.40;;;30.90;66.90;;;;;;5131905;27;20338;-68
2022/06/11 13:42:53;;;;;;;0.45;0.45;;;30.30;65.10;;;;;;5130988;27;20202;-68
2022/06/11 13:45:54;;;;;;;0.40;0.40;;;29.60;66.20;;;;;;5131741;27;20670;-67
2022/06/11 13:49:00;;;;;;;0.40;0.40;;;29.40;67.20;;;;;;5131868;27;20201;-67
2022/06/11 13:51:57;;;;;;;0.40;0.40;;;29.50;66.30;;;;;;5132823;27;20205;-69
2022/06/11 13:58:31;;;;;;;0.40;0.40;;;29.90;65.70;;;;;;5132525;27;20197;-68
2022/06/11 14:01:32;;;;;;;0.63;0.63;;;30.90;65.70;;;;;;5130930;27;20199;-68
2022/06/11 14:04:34;;;;;;;0.40;0.40;;;31.90;62.90;;;;;;5131370;27;20195;-68
2022/06/11 14:07:25;;;;;;;0.40;0.40;;;33.90;60.70;;;;;;5131831;27;20190;-68
2022/06/11 14:10:32;;;;;;;0.50;0.50;;;37.10;55.80;;;;;;5131808;27;20218;-68
2022/06/11 14:13:55;;;;;;;0.40;0.40;;;39.20;52.50;;;;;;5131843;27;20202;-69
2022/06/11 14:16:46;;;;;;;0.40;0.40;;;39.50;49.80;;;;;;5132735;27;20199;-68
2022/06/11 14:19:42;;;;;;;0.40;0.40;;;36.80;51.90;;;;;;5131308;27;20230;-68
2022/06/11 14:22:48;;;;;;;0.50;0.50;;;35.80;52.10;;;;;;5131800;27;20226;-68
2022/06/11 14:25:40;;;;;;;0.40;0.40;;;36.20;52.20;;;;;;5131055;27;20202;-68
2022/06/11 14:28:47;;;;;;;0.40;0.40;;;37.40;51.00;;;;;;5131401;27;20191;-68
2022/06/11 14:31:51;;;;;;;0.50;0.50;;;38.00;49.50;;;;;;5131347;27;20209;-68
2022/06/11 14:34:58;;;;;;;0.47;0.47;;;36.00;50.30;;;;;;5131466;27;20289;-68
2022/06/11 14:37:47;;;;;;;0.68;0.52;;;34.10;52.90;;;;;;5131075;27;20202;-67
2022/06/11 14:40:35;;;;;;;0.45;0.45;;;32.50;54.80;;;;;;5131418;27;20215;-67
2022/06/11 14:43:24;;;;;;;0.40;0.40;;;31.00;57.10;;;;;;5131487;27;20206;-67
2022/06/11 14:46:47;;;;;;;0.40;0.40;;;30.50;58.80;;;;;;5132125;27;20194;-68
2022/06/11 14:49:49;;;;;;;0.77;0.77;;;30.00;59.50;;;;;;5130574;27;20292;-68
2022/06/11 14:52:49;;;;;;;0.40;0.40;;;30.10;58.70;;;;;;5141714;27;20674;-69
2022/06/11 14:55:42;;;;;;;0.60;0.60;;;30.50;58.20;;;;;;5131367;27;20195;-68
2022/06/11 14:58:59;;;;;;;0.40;0.40;;;31.50;55.30;;;;;;5111643;28;20199;-69
2022/06/11 15:02:09;;;;;;;0.40;0.40;;;31.50;55.90;;;;;;5112114;28;20592;-70
2022/06/11 15:05:12;;;;;;;0.40;0.40;;;32.40;54.40;;;;;;5111293;28;20644;-69
2022/06/11 15:08:16;;;;;;;0.60;0.50;;;31.90;55.00;;;;;;5111871;28;20203;-69
2022/06/11 15:11:16;;;;;;;0.40;0.40;;;31.20;56.20;;;;;;5113788;28;20195;-68